Skip Navigation LinksHome page > Weather > Current weather Skip Navigation Links

Current Weather

Moundou, Chad

For information only: do not use for flight planning or navigation.
Latest weather
Observation time Saturday, November 28, 2015 8:00 AM WAT
Local time Saturday, November 28, 2015 8:37 AM WAT
Flight conditions Visual Meteorological Conditions
Wind direction West (280°)
Wind speed 5 mph
Visibility 6.2 mi.
Sky condition
Ceiling unlimited
Sky clear
Temperature 68°F
Dewpoint 61°F
Altimeter 29.97 in.Hg
Derived measurements
Relative humidity 78%
Density altitude 1203 ft.
Ceiling and visibility OK.
METAR FTTD 280700Z 28004KT CAVOK 20/16 Q1015


Location code

InnerDrive.Weather 4.0.5722.1 Release CLR 4.0.30319.34014
Copyright ©2015 Inner Drive Technology. All rights reserved. Portions Copyright ©1986-2015 David Braverman.

Find weather

Site navigation

Skip Navigation Links

Place info

Page info

PayPal - The safer, easier way to pay online!

Return home.

Copyright ©2015 Inner Drive Technology. Purveyors of fine, hand-crafted computer software. Page printed 2015-11-28T07:37:17 UTC.